sensor_id;sensor_type;location;lat;lon;timestamp;temperature;humidity
1175;DHT22;576;48.418;10.074;2022-08-03T00:02:18;29.50;62.00
1175;DHT22;576;48.418;10.074;2022-08-03T00:04:47;29.50;61.80
1175;DHT22;576;48.418;10.074;2022-08-03T00:07:15;29.50;61.70
1175;DHT22;576;48.418;10.074;2022-08-03T00:09:45;29.40;61.80
1175;DHT22;576;48.418;10.074;2022-08-03T00:12:13;29.40;61.80
1175;DHT22;576;48.418;10.074;2022-08-03T00:14:42;29.40;61.80
1175;DHT22;576;48.418;10.074;2022-08-03T00:17:11;29.40;61.80
1175;DHT22;576;48.418;10.074;2022-08-03T00:19:39;29.40;61.80
1175;DHT22;576;48.418;10.074;2022-08-03T00:22:07;29.40;61.80
1175;DHT22;576;48.418;10.074;2022-08-03T00:24:36;29.40;61.80
1175;DHT22;576;48.418;10.074;2022-08-03T00:27:05;29.40;61.80
1175;DHT22;576;48.418;10.074;2022-08-03T00:29:34;29.40;61.80
1175;DHT22;576;48.418;10.074;2022-08-03T00:32:22;29.40;61.80
1175;DHT22;576;48.418;10.074;2022-08-03T00:34:50;29.30;61.90
1175;DHT22;576;48.418;10.074;2022-08-03T00:37:25;29.30;61.90
1175;DHT22;576;48.418;10.074;2022-08-03T00:40:10;29.30;61.90
1175;DHT22;576;48.418;10.074;2022-08-03T00:42:51;29.30;61.90
1175;DHT22;576;48.418;10.074;2022-08-03T00:45:21;29.30;62.00
1175;DHT22;576;48.418;10.074;2022-08-03T00:47:50;29.30;62.00
1175;DHT22;576;48.418;10.074;2022-08-03T00:50:20;29.30;62.00
1175;DHT22;576;48.418;10.074;2022-08-03T00:52:51;29.30;62.00
1175;DHT22;576;48.418;10.074;2022-08-03T00:55:20;29.30;62.00
1175;DHT22;576;48.418;10.074;2022-08-03T00:57:50;29.20;62.00
1175;DHT22;576;48.418;10.074;2022-08-03T01:00:20;29.20;62.00
1175;DHT22;576;48.418;10.074;2022-08-03T01:02:49;29.20;62.00
1175;DHT22;576;48.418;10.074;2022-08-03T01:05:18;29.20;62.00
1175;DHT22;576;48.418;10.074;2022-08-03T01:07:59;29.20;62.00
1175;DHT22;576;48.418;10.074;2022-08-03T01:10:36;29.20;62.00
1175;DHT22;576;48.418;10.074;2022-08-03T01:13:19;29.20;62.00
1175;DHT22;576;48.418;10.074;2022-08-03T01:16:29;29.20;62.00
1175;DHT22;576;48.418;10.074;2022-08-03T01:19:15;29.20;62.00
1175;DHT22;576;48.418;10.074;2022-08-03T01:21:56;29.20;62.00
1175;DHT22;576;48.418;10.074;2022-08-03T01:24:35;29.20;62.00
1175;DHT22;576;48.418;10.074;2022-08-03T01:27:09;29.20;62.10
1175;DHT22;576;48.418;10.074;2022-08-03T01:30:03;29.10;62.00
1175;DHT22;576;48.418;10.074;2022-08-03T01:32:40;29.10;62.00
1175;DHT22;576;48.418;10.074;2022-08-03T01:35:32;29.10;62.10
1175;DHT22;576;48.418;10.074;2022-08-03T01:38:08;29.10;62.00
1175;DHT22;576;48.418;10.074;2022-08-03T01:40:39;29.10;62.10
1175;DHT22;576;48.418;10.074;2022-08-03T01:43:11;29.10;62.10
1175;DHT22;576;48.418;10.074;2022-08-03T01:46:02;29.10;62.10
1175;DHT22;576;48.418;10.074;2022-08-03T01:48:31;29.10;62.10
1175;DHT22;576;48.418;10.074;2022-08-03T01:51:00;29.10;62.10
1175;DHT22;576;48.418;10.074;2022-08-03T01:53:30;29.10;62.00
1175;DHT22;576;48.418;10.074;2022-08-03T01:56:03;29.10;62.10
1175;DHT22;576;48.418;10.074;2022-08-03T01:58:34;29.10;62.10
1175;DHT22;576;48.418;10.074;2022-08-03T02:01:05;29.10;62.00
1175;DHT22;576;48.418;10.074;2022-08-03T02:04:13;29.00;62.00
1175;DHT22;576;48.418;10.074;2022-08-03T02:06:44;29.00;62.00
1175;DHT22;576;48.418;10.074;2022-08-03T02:09:27;29.00;62.00
1175;DHT22;576;48.418;10.074;2022-08-03T02:11:57;29.00;62.00
1175;DHT22;576;48.418;10.074;2022-08-03T02:14:27;29.00;62.00
1175;DHT22;576;48.418;10.074;2022-08-03T02:16:57;29.00;62.00
1175;DHT22;576;48.418;10.074;2022-08-03T02:19:25;29.00;62.00
1175;DHT22;576;48.418;10.074;2022-08-03T02:22:01;29.00;62.00
1175;DHT22;576;48.418;10.074;2022-08-03T02:24:31;29.00;62.00
1175;DHT22;576;48.418;10.074;2022-08-03T02:26:59;29.00;62.00
1175;DHT22;576;48.418;10.074;2022-08-03T02:29:31;29.00;62.00
1175;DHT22;576;48.418;10.074;2022-08-03T02:32:10;28.90;62.10
1175;DHT22;576;48.418;10.074;2022-08-03T02:34:46;28.90;62.70
1175;DHT22;576;48.418;10.074;2022-08-03T02:37:17;28.90;62.90
1175;DHT22;576;48.418;10.074;2022-08-03T02:39:46;28.90;62.20
1175;DHT22;576;48.418;10.074;2022-08-03T02:42:20;28.90;62.10
1175;DHT22;576;48.418;10.074;2022-08-03T02:44:50;28.90;62.10
1175;DHT22;576;48.418;10.074;2022-08-03T02:47:21;28.90;62.10
1175;DHT22;576;48.418;10.074;2022-08-03T02:49:51;28.90;62.10
1175;DHT22;576;48.418;10.074;2022-08-03T02:52:23;28.90;62.00
1175;DHT22;576;48.418;10.074;2022-08-03T02:54:55;28.90;62.00
1175;DHT22;576;48.418;10.074;2022-08-03T02:57:26;28.90;62.00
1175;DHT22;576;48.418;10.074;2022-08-03T02:59:55;28.90;62.00
1175;DHT22;576;48.418;10.074;2022-08-03T03:02:27;28.90;62.00
1175;DHT22;576;48.418;10.074;2022-08-03T03:04:56;28.80;62.00
1175;DHT22;576;48.418;10.074;2022-08-03T03:07:45;28.80;62.00
1175;DHT22;576;48.418;10.074;2022-08-03T03:10:20;28.80;62.00
1175;DHT22;576;48.418;10.074;2022-08-03T03:12:50;28.80;62.00
1175;DHT22;576;48.418;10.074;2022-08-03T03:15:19;28.80;62.00
1175;DHT22;576;48.418;10.074;2022-08-03T03:17:49;28.80;62.10
1175;DHT22;576;48.418;10.074;2022-08-03T03:20:19;28.80;62.00
1175;DHT22;576;48.418;10.074;2022-08-03T03:22:58;28.80;62.00
1175;DHT22;576;48.418;10.074;2022-08-03T03:25:28;28.80;62.00
1175;DHT22;576;48.418;10.074;2022-08-03T03:27:58;28.70;62.00
1175;DHT22;576;48.418;10.074;2022-08-03T03:30:27;28.70;62.00
1175;DHT22;576;48.418;10.074;2022-08-03T03:32:57;28.80;62.00
1175;DHT22;576;48.418;10.074;2022-08-03T03:35:26;28.70;62.00
1175;DHT22;576;48.418;10.074;2022-08-03T03:37:56;28.70;62.00
1175;DHT22;576;48.418;10.074;2022-08-03T03:40:24;28.70;62.00
1175;DHT22;576;48.418;10.074;2022-08-03T03:42:52;28.70;62.00
1175;DHT22;576;48.418;10.074;2022-08-03T03:45:21;28.70;61.90
1175;DHT22;576;48.418;10.074;2022-08-03T03:47:50;28.70;62.00
1175;DHT22;576;48.418;10.074;2022-08-03T03:50:21;28.70;61.90
1175;DHT22;576;48.418;10.074;2022-08-03T03:52:49;28.70;62.00
1175;DHT22;576;48.418;10.074;2022-08-03T03:55:18;28.70;61.90
1175;DHT22;576;48.418;10.074;2022-08-03T03:57:46;28.70;61.90
1175;DHT22;576;48.418;10.074;2022-08-03T04:00:16;28.70;61.90
1175;DHT22;576;48.418;10.074;2022-08-03T04:02:45;28.70;61.90
1175;DHT22;576;48.418;10.074;2022-08-03T04:05:14;28.70;62.00
1175;DHT22;576;48.418;10.074;2022-08-03T04:08:04;28.70;62.00
1175;DHT22;576;48.418;10.074;2022-08-03T04:11:00;28.70;62.00
1175;DHT22;576;48.418;10.074;2022-08-03T04:13:33;28.70;62.00
1175;DHT22;576;48.418;10.074;2022-08-03T04:16:03;28.60;62.00
1175;DHT22;576;48.418;10.074;2022-08-03T04:18:33;28.60;61.90
1175;DHT22;576;48.418;10.074;2022-08-03T04:21:06;28.60;61.90
1175;DHT22;576;48.418;10.074;2022-08-03T04:23:59;28.60;61.90
1175;DHT22;576;48.418;10.074;2022-08-03T04:26:30;28.60;61.90
1175;DHT22;576;48.418;10.074;2022-08-03T04:29:00;28.60;61.90
1175;DHT22;576;48.418;10.074;2022-08-03T04:31:37;28.60;61.90
1175;DHT22;576;48.418;10.074;2022-08-03T04:34:06;28.60;61.90
1175;DHT22;576;48.418;10.074;2022-08-03T04:36:39;28.60;61.90
1175;DHT22;576;48.418;10.074;2022-08-03T04:39:17;28.60;61.90
1175;DHT22;576;48.418;10.074;2022-08-03T04:41:48;28.60;61.90
1175;DHT22;576;48.418;10.074;2022-08-03T04:44:36;28.60;61.80
1175;DHT22;576;48.418;10.074;2022-08-03T04:47:06;28.60;61.80
1175;DHT22;576;48.418;10.074;2022-08-03T04:49:35;28.60;61.80
1175;DHT22;576;48.418;10.074;2022-08-03T04:52:06;28.60;61.80
1175;DHT22;576;48.418;10.074;2022-08-03T04:54:41;28.60;61.80
1175;DHT22;576;48.418;10.074;2022-08-03T04:57:18;28.60;61.80
1175;DHT22;576;48.418;10.074;2022-08-03T04:59:49;28.60;61.80
1175;DHT22;576;48.418;10.074;2022-08-03T05:02:27;28.60;61.80
1175;DHT22;576;48.418;10.074;2022-08-03T05:04:56;28.60;61.80
1175;DHT22;576;48.418;10.074;2022-08-03T05:07:24;28.60;61.80
1175;DHT22;576;48.418;10.074;2022-08-03T05:10:05;28.60;61.90
1175;DHT22;576;48.418;10.074;2022-08-03T05:12:41;28.60;61.90
1175;DHT22;576;48.418;10.074;2022-08-03T05:15:10;28.60;61.80
1175;DHT22;576;48.418;10.074;2022-08-03T05:17:39;28.60;61.70
1175;DHT22;576;48.418;10.074;2022-08-03T05:20:08;28.60;61.80
1175;DHT22;576;48.418;10.074;2022-08-03T05:22:37;28.60;61.90
1175;DHT22;576;48.418;10.074;2022-08-03T05:25:07;28.60;61.90
1175;DHT22;576;48.418;10.074;2022-08-03T05:27:43;28.60;61.90
1175;DHT22;576;48.418;10.074;2022-08-03T05:30:11;28.60;62.00
1175;DHT22;576;48.418;10.074;2022-08-03T05:32:59;28.60;62.00
1175;DHT22;576;48.418;10.074;2022-08-03T05:35:27;28.70;62.00
1175;DHT22;576;48.418;10.074;2022-08-03T05:38:15;28.70;62.00
1175;DHT22;576;48.418;10.074;2022-08-03T05:40:56;28.70;62.10
1175;DHT22;576;48.418;10.074;2022-08-03T05:44:10;28.70;62.10
1175;DHT22;576;48.418;10.074;2022-08-03T05:46:38;28.70;62.10
1175;DHT22;576;48.418;10.074;2022-08-03T05:49:06;28.70;62.10
1175;DHT22;576;48.418;10.074;2022-08-03T05:51:35;28.70;62.10
1175;DHT22;576;48.418;10.074;2022-08-03T05:54:03;28.70;62.20
1175;DHT22;576;48.418;10.074;2022-08-03T05:56:33;28.70;62.10
1175;DHT22;576;48.418;10.074;2022-08-03T05:59:01;28.70;62.10
1175;DHT22;576;48.418;10.074;2022-08-03T06:01:49;28.70;62.10
1175;DHT22;576;48.418;10.074;2022-08-03T06:04:18;28.70;62.10
1175;DHT22;576;48.418;10.074;2022-08-03T06:06:46;28.70;62.10
1175;DHT22;576;48.418;10.074;2022-08-03T06:09:16;28.70;62.10
1175;DHT22;576;48.418;10.074;2022-08-03T06:11:46;28.70;62.10
1175;DHT22;576;48.418;10.074;2022-08-03T06:14:14;28.70;62.10
1175;DHT22;576;48.418;10.074;2022-08-03T06:16:42;28.70;62.10
1175;DHT22;576;48.418;10.074;2022-08-03T06:19:10;28.80;62.10
1175;DHT22;576;48.418;10.074;2022-08-03T06:21:39;28.80;62.10
1175;DHT22;576;48.418;10.074;2022-08-03T06:24:07;28.80;62.10
1175;DHT22;576;48.418;10.074;2022-08-03T06:26:35;28.80;62.10
1175;DHT22;576;48.418;10.074;2022-08-03T06:29:05;28.80;62.10
1175;DHT22;576;48.418;10.074;2022-08-03T06:31:35;28.80;62.10
1175;DHT22;576;48.418;10.074;2022-08-03T06:34:04;28.80;62.10
1175;DHT22;576;48.418;10.074;2022-08-03T06:36:52;28.80;62.10
1175;DHT22;576;48.418;10.074;2022-08-03T06:39:28;28.80;62.10
1175;DHT22;576;48.418;10.074;2022-08-03T06:41:56;28.80;62.10
1175;DHT22;576;48.418;10.074;2022-08-03T06:44:26;28.80;62.30
1175;DHT22;576;48.418;10.074;2022-08-03T06:46:54;28.80;62.50
1175;DHT22;576;48.418;10.074;2022-08-03T06:49:22;28.90;62.50
1175;DHT22;576;48.418;10.074;2022-08-03T06:51:51;28.90;62.60
1175;DHT22;576;48.418;10.074;2022-08-03T06:54:35;28.90;62.60
1175;DHT22;576;48.418;10.074;2022-08-03T06:57:04;28.90;62.60
1175;DHT22;576;48.418;10.074;2022-08-03T06:59:35;28.90;62.60
1175;DHT22;576;48.418;10.074;2022-08-03T07:02:23;29.00;62.60
1175;DHT22;576;48.418;10.074;2022-08-03T07:04:54;29.00;62.60
1175;DHT22;576;48.418;10.074;2022-08-03T07:07:23;29.00;62.60
1175;DHT22;576;48.418;10.074;2022-08-03T07:09:51;29.00;62.60
1175;DHT22;576;48.418;10.074;2022-08-03T07:12:25;29.10;62.60
1175;DHT22;576;48.418;10.074;2022-08-03T07:14:55;29.10;62.60
1175;DHT22;576;48.418;10.074;2022-08-03T07:17:28;29.10;62.60
1175;DHT22;576;48.418;10.074;2022-08-03T07:19:57;29.10;62.60
1175;DHT22;576;48.418;10.074;2022-08-03T07:22:25;29.10;62.60
1175;DHT22;576;48.418;10.074;2022-08-03T07:24:54;29.10;62.60
1175;DHT22;576;48.418;10.074;2022-08-03T07:27:22;29.10;62.60
1175;DHT22;576;48.418;10.074;2022-08-03T07:29:53;29.20;62.60
1175;DHT22;576;48.418;10.074;2022-08-03T07:32:23;29.20;62.60
1175;DHT22;576;48.418;10.074;2022-08-03T07:34:51;29.20;62.60
1175;DHT22;576;48.418;10.074;2022-08-03T07:37:27;29.20;62.60
1175;DHT22;576;48.418;10.074;2022-08-03T07:39:56;29.20;62.50
1175;DHT22;576;48.418;10.074;2022-08-03T07:42:24;29.20;62.50
1175;DHT22;576;48.418;10.074;2022-08-03T07:44:53;29.30;62.50
1175;DHT22;576;48.418;10.074;2022-08-03T07:47:24;29.30;62.50
1175;DHT22;576;48.418;10.074;2022-08-03T07:50:03;29.30;62.50
1175;DHT22;576;48.418;10.074;2022-08-03T07:52:31;29.30;62.50
1175;DHT22;576;48.418;10.074;2022-08-03T07:55:15;29.30;62.40
1175;DHT22;576;48.418;10.074;2022-08-03T07:57:44;29.30;62.40
1175;DHT22;576;48.418;10.074;2022-08-03T08:00:14;29.30;62.40
1175;DHT22;576;48.418;10.074;2022-08-03T08:02:45;29.40;62.40
1175;DHT22;576;48.418;10.074;2022-08-03T08:05:13;29.40;62.40
1175;DHT22;576;48.418;10.074;2022-08-03T08:07:41;29.40;62.40
1175;DHT22;576;48.418;10.074;2022-08-03T08:10:16;29.40;62.30
1175;DHT22;576;48.418;10.074;2022-08-03T08:12:45;29.40;62.30
1175;DHT22;576;48.418;10.074;2022-08-03T08:15:14;29.40;62.30
1175;DHT22;576;48.418;10.074;2022-08-03T08:17:46;29.40;62.30
1175;DHT22;576;48.418;10.074;2022-08-03T08:20:19;29.50;62.30
1175;DHT22;576;48.418;10.074;2022-08-03T08:22:55;29.50;62.30
1175;DHT22;576;48.418;10.074;2022-08-03T08:25:24;29.50;62.30
1175;DHT22;576;48.418;10.074;2022-08-03T08:27:53;29.50;62.20
1175;DHT22;576;48.418;10.074;2022-08-03T08:30:41;29.50;62.20
1175;DHT22;576;48.418;10.074;2022-08-03T08:33:11;29.50;62.20
1175;DHT22;576;48.418;10.074;2022-08-03T08:35:51;29.60;62.30
1175;DHT22;576;48.418;10.074;2022-08-03T08:38:20;29.60;62.30
1175;DHT22;576;48.418;10.074;2022-08-03T08:40:49;29.60;62.30
1175;DHT22;576;48.418;10.074;2022-08-03T08:43:17;29.60;62.30
1175;DHT22;576;48.418;10.074;2022-08-03T08:45:48;29.60;62.30
1175;DHT22;576;48.418;10.074;2022-08-03T08:48:23;29.60;62.30
1175;DHT22;576;48.418;10.074;2022-08-03T08:50:53;29.60;62.30
1175;DHT22;576;48.418;10.074;2022-08-03T08:53:25;29.60;62.30
1175;DHT22;576;48.418;10.074;2022-08-03T08:55:58;29.60;62.30
1175;DHT22;576;48.418;10.074;2022-08-03T08:58:28;29.60;62.40
1175;DHT22;576;48.418;10.074;2022-08-03T09:00:57;29.60;62.30
1175;DHT22;576;48.418;10.074;2022-08-03T09:03:27;29.60;62.30
1175;DHT22;576;48.418;10.074;2022-08-03T09:05:58;29.60;62.40
1175;DHT22;576;48.418;10.074;2022-08-03T09:08:29;29.60;62.40
1175;DHT22;576;48.418;10.074;2022-08-03T09:10:57;29.60;62.20
1175;DHT22;576;48.418;10.074;2022-08-03T09:13:26;29.60;62.10
1175;DHT22;576;48.418;10.074;2022-08-03T09:16:17;29.60;62.00
1175;DHT22;576;48.418;10.074;2022-08-03T09:18:49;29.60;61.90
1175;DHT22;576;48.418;10.074;2022-08-03T09:21:25;29.60;61.90
1175;DHT22;576;48.418;10.074;2022-08-03T09:24:00;29.60;61.90
1175;DHT22;576;48.418;10.074;2022-08-03T09:26:33;29.60;61.80
1175;DHT22;576;48.418;10.074;2022-08-03T09:29:04;29.60;61.80
1175;DHT22;576;48.418;10.074;2022-08-03T09:31:42;29.60;61.70
1175;DHT22;576;48.418;10.074;2022-08-03T09:34:14;29.60;61.70
1175;DHT22;576;48.418;10.074;2022-08-03T09:36:44;29.60;61.70
1175;DHT22;576;48.418;10.074;2022-08-03T09:39:14;29.60;61.70
1175;DHT22;576;48.418;10.074;2022-08-03T09:41:44;29.60;61.60
1175;DHT22;576;48.418;10.074;2022-08-03T09:44:13;29.60;61.70
1175;DHT22;576;48.418;10.074;2022-08-03T09:46:53;29.60;61.60
1175;DHT22;576;48.418;10.074;2022-08-03T09:49:24;29.60;61.60
1175;DHT22;576;48.418;10.074;2022-08-03T09:51:52;29.60;61.60
1175;DHT22;576;48.418;10.074;2022-08-03T09:54:42;29.60;61.60
1175;DHT22;576;48.418;10.074;2022-08-03T09:57:21;29.70;61.50
1175;DHT22;576;48.418;10.074;2022-08-03T09:59:50;29.70;61.50
1175;DHT22;576;48.418;10.074;2022-08-03T10:02:39;29.70;61.50
1175;DHT22;576;48.418;10.074;2022-08-03T10:05:10;29.70;61.40
1175;DHT22;576;48.418;10.074;2022-08-03T10:07:47;29.70;61.40
1175;DHT22;576;48.418;10.074;2022-08-03T10:10:17;29.70;61.20
1175;DHT22;576;48.418;10.074;2022-08-03T10:12:59;29.70;61.20
1175;DHT22;576;48.418;10.074;2022-08-03T10:15:28;29.70;61.10
1175;DHT22;576;48.418;10.074;2022-08-03T10:18:16;29.70;61.10
1175;DHT22;576;48.418;10.074;2022-08-03T10:20:50;29.70;61.10
1175;DHT22;576;48.418;10.074;2022-08-03T10:27:19;29.70;61.00
1175;DHT22;576;48.418;10.074;2022-08-03T10:29:51;29.70;61.00
1175;DHT22;576;48.418;10.074;2022-08-03T10:32:46;29.70;61.00
1175;DHT22;576;48.418;10.074;2022-08-03T10:35:16;29.70;60.80
1175;DHT22;576;48.418;10.074;2022-08-03T10:37:56;29.70;60.80
1175;DHT22;576;48.418;10.074;2022-08-03T10:40:27;29.70;60.70
1175;DHT22;576;48.418;10.074;2022-08-03T10:43:19;29.70;60.60
1175;DHT22;576;48.418;10.074;2022-08-03T10:45:48;29.70;60.20
1175;DHT22;576;48.418;10.074;2022-08-03T10:48:18;29.80;60.30
1175;DHT22;576;48.418;10.074;2022-08-03T10:50:48;29.80;60.20
1175;DHT22;576;48.418;10.074;2022-08-03T10:53:33;29.80;60.00
1175;DHT22;576;48.418;10.074;2022-08-03T10:56:04;29.80;59.80
1175;DHT22;576;48.418;10.074;2022-08-03T10:59:07;29.80;59.40
1175;DHT22;576;48.418;10.074;2022-08-03T11:01:51;29.80;59.20
1175;DHT22;576;48.418;10.074;2022-08-03T11:04:27;29.80;58.90
1175;DHT22;576;48.418;10.074;2022-08-03T11:07:18;29.90;58.50
1175;DHT22;576;48.418;10.074;2022-08-03T11:09:50;29.90;58.60
1175;DHT22;576;48.418;10.074;2022-08-03T11:12:21;29.90;58.40
1175;DHT22;576;48.418;10.074;2022-08-03T11:14:59;29.90;58.00
1175;DHT22;576;48.418;10.074;2022-08-03T11:17:27;29.90;57.80
1175;DHT22;576;48.418;10.074;2022-08-03T11:19:56;29.90;57.80
1175;DHT22;576;48.418;10.074;2022-08-03T11:22:25;29.90;58.00
1175;DHT22;576;48.418;10.074;2022-08-03T11:25:14;29.80;58.20
1175;DHT22;576;48.418;10.074;2022-08-03T11:28:23;29.90;58.20
1175;DHT22;576;48.418;10.074;2022-08-03T11:30:52;29.90;57.40
1175;DHT22;576;48.418;10.074;2022-08-03T11:33:30;29.90;57.20
1175;DHT22;576;48.418;10.074;2022-08-03T11:36:00;29.90;57.40
1175;DHT22;576;48.418;10.074;2022-08-03T11:38:30;30.00;57.20
1175;DHT22;576;48.418;10.074;2022-08-03T11:41:00;30.10;56.60
1175;DHT22;576;48.418;10.074;2022-08-03T11:43:44;30.10;56.70
1175;DHT22;576;48.418;10.074;2022-08-03T11:46:13;30.20;56.50
1175;DHT22;576;48.418;10.074;2022-08-03T11:49:03;30.30;56.20
1175;DHT22;576;48.418;10.074;2022-08-03T11:51:37;30.40;55.80
1175;DHT22;576;48.418;10.074;2022-08-03T11:54:06;30.50;55.90
1175;DHT22;576;48.418;10.074;2022-08-03T11:56:46;30.60;55.60
1175;DHT22;576;48.418;10.074;2022-08-03T11:59:15;30.70;54.80
1175;DHT22;576;48.418;10.074;2022-08-03T12:01:48;30.80;55.10
1175;DHT22;576;48.418;10.074;2022-08-03T12:04:16;30.90;54.90
1175;DHT22;576;48.418;10.074;2022-08-03T12:07:00;31.00;54.40
1175;DHT22;576;48.418;10.074;2022-08-03T12:09:29;31.20;54.20
1175;DHT22;576;48.418;10.074;2022-08-03T12:11:59;31.30;54.00
1175;DHT22;576;48.418;10.074;2022-08-03T12:14:28;31.50;54.00
1175;DHT22;576;48.418;10.074;2022-08-03T12:17:16;31.70;53.90
1175;DHT22;576;48.418;10.074;2022-08-03T12:19:45;31.90;53.20
1175;DHT22;576;48.418;10.074;2022-08-03T12:22:13;32.10;52.90
1175;DHT22;576;48.418;10.074;2022-08-03T12:24:43;32.30;53.00
1175;DHT22;576;48.418;10.074;2022-08-03T12:27:23;32.50;52.20
1175;DHT22;576;48.418;10.074;2022-08-03T12:29:53;32.80;51.80
1175;DHT22;576;48.418;10.074;2022-08-03T12:32:25;33.10;50.80
1175;DHT22;576;48.418;10.074;2022-08-03T12:34:55;33.40;50.30
1175;DHT22;576;48.418;10.074;2022-08-03T12:37:27;33.50;50.20
1175;DHT22;576;48.418;10.074;2022-08-03T12:39:58;33.60;50.20
1175;DHT22;576;48.418;10.074;2022-08-03T12:42:38;33.60;50.10
1175;DHT22;576;48.418;10.074;2022-08-03T12:45:24;33.60;50.30
1175;DHT22;576;48.418;10.074;2022-08-03T12:47:55;33.60;50.20
1175;DHT22;576;48.418;10.074;2022-08-03T12:50:29;33.60;50.40
1175;DHT22;576;48.418;10.074;2022-08-03T12:52:59;33.60;50.70
1175;DHT22;576;48.418;10.074;2022-08-03T12:55:27;33.60;51.00
1175;DHT22;576;48.418;10.074;2022-08-03T12:58:32;33.60;51.40
1175;DHT22;576;48.418;10.074;2022-08-03T13:01:03;33.60;51.70
1175;DHT22;576;48.418;10.074;2022-08-03T13:03:40;33.60;52.10
1175;DHT22;576;48.418;10.074;2022-08-03T13:06:17;33.60;52.30
1175;DHT22;576;48.418;10.074;2022-08-03T13:08:45;33.50;52.70
1175;DHT22;576;48.418;10.074;2022-08-03T13:11:23;33.40;53.00
1175;DHT22;576;48.418;10.074;2022-08-03T13:14:13;33.40;53.20
1175;DHT22;576;48.418;10.074;2022-08-03T13:16:46;33.30;53.40
1175;DHT22;576;48.418;10.074;2022-08-03T13:19:15;33.30;53.40
1175;DHT22;576;48.418;10.074;2022-08-03T13:21:43;33.40;53.40
1175;DHT22;576;48.418;10.074;2022-08-03T13:24:31;33.40;52.90
1175;DHT22;576;48.418;10.074;2022-08-03T13:27:00;33.30;52.90
1175;DHT22;576;48.418;10.074;2022-08-03T13:29:49;33.00;51.90
1175;DHT22;576;48.418;10.074;2022-08-03T13:32:19;32.40;52.60
1175;DHT22;576;48.418;10.074;2022-08-03T13:34:47;32.00;53.30
1175;DHT22;576;48.418;10.074;2022-08-03T13:37:15;31.70;54.00
1175;DHT22;576;48.418;10.074;2022-08-03T13:39:44;31.50;54.30
1175;DHT22;576;48.418;10.074;2022-08-03T13:42:26;31.20;54.90
1175;DHT22;576;48.418;10.074;2022-08-03T13:44:56;31.00;55.10
1175;DHT22;576;48.418;10.074;2022-08-03T13:47:25;30.90;55.40
1175;DHT22;576;48.418;10.074;2022-08-03T13:49:53;30.80;55.60
1175;DHT22;576;48.418;10.074;2022-08-03T13:52:29;30.70;55.70
1175;DHT22;576;48.418;10.074;2022-08-03T13:54:58;30.60;56.00
1175;DHT22;576;48.418;10.074;2022-08-03T13:57:26;30.50;56.10
1175;DHT22;576;48.418;10.074;2022-08-03T14:00:17;30.50;56.20
1175;DHT22;576;48.418;10.074;2022-08-03T14:02:55;30.50;56.20
1175;DHT22;576;48.418;10.074;2022-08-03T14:05:33;30.50;55.90
1175;DHT22;576;48.418;10.074;2022-08-03T14:08:01;30.50;56.00
1175;DHT22;576;48.418;10.074;2022-08-03T14:10:33;30.50;56.10
1175;DHT22;576;48.418;10.074;2022-08-03T14:13:02;30.50;56.10
1175;DHT22;576;48.418;10.074;2022-08-03T14:15:31;30.50;56.00
1175;DHT22;576;48.418;10.074;2022-08-03T14:18:04;30.50;55.90
1175;DHT22;576;48.418;10.074;2022-08-03T14:20:32;30.60;55.80
1175;DHT22;576;48.418;10.074;2022-08-03T14:23:13;30.50;55.40
1175;DHT22;576;48.418;10.074;2022-08-03T14:25:41;30.40;55.50
1175;DHT22;576;48.418;10.074;2022-08-03T14:28:18;30.30;55.00
1175;DHT22;576;48.418;10.074;2022-08-03T14:30:48;30.20;55.10
1175;DHT22;576;48.418;10.074;2022-08-03T14:33:16;30.30;55.00
1175;DHT22;576;48.418;10.074;2022-08-03T14:35:45;30.40;54.80
1175;DHT22;576;48.418;10.074;2022-08-03T14:38:13;30.40;54.70
1175;DHT22;576;48.418;10.074;2022-08-03T14:40:42;30.50;54.60
1175;DHT22;576;48.418;10.074;2022-08-03T14:43:10;30.50;54.30
1175;DHT22;576;48.418;10.074;2022-08-03T14:45:38;30.60;54.50
1175;DHT22;576;48.418;10.074;2022-08-03T14:48:08;30.60;54.20
1175;DHT22;576;48.418;10.074;2022-08-03T14:50:58;30.60;54.10
1175;DHT22;576;48.418;10.074;2022-08-03T14:53:26;30.60;54.20
1175;DHT22;576;48.418;10.074;2022-08-03T14:55:56;30.60;54.00
1175;DHT22;576;48.418;10.074;2022-08-03T14:58:24;30.60;54.10
1175;DHT22;576;48.418;10.074;2022-08-03T15:00:54;30.70;54.30
1175;DHT22;576;48.418;10.074;2022-08-03T15:03:23;30.70;54.50
1175;DHT22;576;48.418;10.074;2022-08-03T15:05:53;30.70;54.70
1175;DHT22;576;48.418;10.074;2022-08-03T15:08:23;30.80;54.90
1175;DHT22;576;48.418;10.074;2022-08-03T15:10:52;30.80;55.00
1175;DHT22;576;48.418;10.074;2022-08-03T15:13:20;30.80;55.30
1175;DHT22;576;48.418;10.074;2022-08-03T15:15:49;30.80;55.40
1175;DHT22;576;48.418;10.074;2022-08-03T15:18:18;30.80;55.50
1175;DHT22;576;48.418;10.074;2022-08-03T15:20:48;30.90;55.60
1175;DHT22;576;48.418;10.074;2022-08-03T15:23:17;30.90;55.70
1175;DHT22;576;48.418;10.074;2022-08-03T15:25:46;30.90;55.60
1175;DHT22;576;48.418;10.074;2022-08-03T15:28:35;30.90;55.80
1175;DHT22;576;48.418;10.074;2022-08-03T15:31:06;30.90;55.90
1175;DHT22;576;48.418;10.074;2022-08-03T15:33:34;30.90;55.90
1175;DHT22;576;48.418;10.074;2022-08-03T15:36:08;31.00;55.90
1175;DHT22;576;48.418;10.074;2022-08-03T15:38:36;31.00;56.00
1175;DHT22;576;48.418;10.074;2022-08-03T15:41:04;31.00;56.10
1175;DHT22;576;48.418;10.074;2022-08-03T15:43:39;31.00;56.10
1175;DHT22;576;48.418;10.074;2022-08-03T15:46:13;31.00;56.10
1175;DHT22;576;48.418;10.074;2022-08-03T15:48:57;31.10;56.10
1175;DHT22;576;48.418;10.074;2022-08-03T15:51:26;31.00;56.10
1175;DHT22;576;48.418;10.074;2022-08-03T15:53:55;31.10;56.10
1175;DHT22;576;48.418;10.074;2022-08-03T15:56:23;31.10;56.10
1175;DHT22;576;48.418;10.074;2022-08-03T15:58:53;31.10;56.10
1175;DHT22;576;48.418;10.074;2022-08-03T16:01:39;31.10;56.20
1175;DHT22;576;48.418;10.074;2022-08-03T16:04:07;31.10;56.10
1175;DHT22;576;48.418;10.074;2022-08-03T16:06:37;31.10;56.20
1175;DHT22;576;48.418;10.074;2022-08-03T16:09:06;31.20;56.10
1175;DHT22;576;48.418;10.074;2022-08-03T16:11:56;31.20;56.20
1175;DHT22;576;48.418;10.074;2022-08-03T16:14:24;31.20;56.20
1175;DHT22;576;48.418;10.074;2022-08-03T16:17:04;31.20;56.20
1175;DHT22;576;48.418;10.074;2022-08-03T16:19:32;31.20;56.10
1175;DHT22;576;48.418;10.074;2022-08-03T16:22:02;31.20;56.30
1175;DHT22;576;48.418;10.074;2022-08-03T16:24:32;31.20;56.20
1175;DHT22;576;48.418;10.074;2022-08-03T16:27:03;31.20;55.30
1175;DHT22;576;48.418;10.074;2022-08-03T16:29:41;31.20;54.90
1175;DHT22;576;48.418;10.074;2022-08-03T16:32:09;31.10;53.90
1175;DHT22;576;48.418;10.074;2022-08-03T16:34:38;31.20;53.70
1175;DHT22;576;48.418;10.074;2022-08-03T16:37:08;31.10;53.60
1175;DHT22;576;48.418;10.074;2022-08-03T16:39:57;31.10;53.30
1175;DHT22;576;48.418;10.074;2022-08-03T16:42:25;31.10;52.90
1175;DHT22;576;48.418;10.074;2022-08-03T16:44:53;31.10;53.20
1175;DHT22;576;48.418;10.074;2022-08-03T16:47:22;31.10;52.70